X-wind landings pre-script

If all parameters fall in to place tomorrows lesson is, apart from the first in almost 1 month, a x-wind landing session. More will follow tomorrow:

 

Advertisements

2 Responses to X-wind landings pre-script

  1. Ben says:

    PC! Mikkel messade.
    KL 10 till 14 kör vi, du börjar!
    BLÅSIGT IDAG!

    ESSA 150530Z 150615 25007KT CAVOK TEMPO 0611 SHRA BKN014
    BKN020CB BECMG 0709 29015G27KT=

    Inte ens lagligt på ESSA? /Ben

  2. johanna says:

    weee, sidvindslandningar e kul! om det gar ratt villsaga. Inte om det osregnar o man far vattenplaning o glider av banan.. fast det var ratt kul det med. So long!

Leave a Reply

Fill in your details below or click an icon to log in:

WordPress.com Logo

You are commenting using your WordPress.com account. Log Out / Change )

Twitter picture

You are commenting using your Twitter account. Log Out / Change )

Facebook photo

You are commenting using your Facebook account. Log Out / Change )

Google+ photo

You are commenting using your Google+ account. Log Out / Change )

Connecting to %s

%d bloggers like this: